Tuesday, June 19, 2018, 3:59 PM EDT
Back to Local

KSBY, Salisbury-wicomico Cty Reg

Location: Salisbury, MD, United States Lat: 38.333
Local Time: 3:59 PM EDT (19:59 GMT) Lon: -75.5
Time Zone: US/Eastern Elev: 52 ft

Show me the last for .
Show Coded

Time T Td Feel RH Dir Speed Gust Alt SLP Vis Weather Sky Remarks
2018-06-19 14:54 88 76 99 67 - Calm - 29.79 29.80 10 BKN055 1-hr Precip Total: 0.04"
2018-06-19 13:54 91 75 102 59 360° 10 - 29.80 29.80 10 BKN043 BKN055 BKN075 6-hr Min Temp (2pm): 82.0°F
6-hr Max Temp (2pm): 93.0°F
2018-06-19 12:54 90 73 99 57 340° 13 - 29.81 29.82 10 BKN044 BKN060 None
2018-06-19 11:54 91 74 101 57 330° 12 - 29.82 29.82 10 SCT039 None
2018-06-19 10:54 88 74 97 63 280° 7 - 29.82 29.82 10 CLR None
2018-06-19 09:54 86 73 93 65 290° 10 - 29.83 29.83 10 CLR None
2018-06-19 08:54 85 74 93 69 280° 9 - 29.84 29.84 10 CLR None
2018-06-19 07:54 82 75 89 79 280° 9 - 29.84 29.84 9 CLR 6-hr Min Temp (8am): 75.9°F
6-hr Max Temp (8am): 82.0°F
2018-06-19 06:54 79 75 85 87 250° 8 - 29.84 29.84 6 BR CLR None
2018-06-19 05:54 77 75 83 93 240° 7 - 29.84 29.84 6 BR CLR None
2018-06-19 04:54 77 75 83 93 250° 7 - 29.83 29.83 7 CLR None
2018-06-19 03:54 77 75 83 93 230° 6 - 29.83 29.83 7 CLR None
2018-06-19 02:54 77 75 83 93 240° 7 - 29.85 29.85 8 CLR None
2018-06-19 01:54 76 74 81 93 230° 6 - 29.87 29.88 8 CLR 6-hr Min Temp (2am): 75.0°F
6-hr Max Temp (2am): 82.0°F
2018-06-19 00:54 75 74 80 96 200° 8 - 29.88 29.88 10 CLR 24-hr Min Temp (1am): 70.0°F
24-hr Max Temp (1am): 91.9°F
2018-06-18 23:54 75 72 79 90 210° 7 - 29.90 29.90 10 CLR None
2018-06-18 22:54 75 71 79 87 200° 6 - 29.92 29.92 10 CLR None
2018-06-18 21:54 77 69 80 76 180° 3 - 29.91 29.92 10 CLR None
2018-06-18 20:54 79 69 82 71 200° 5 - 29.90 29.90 10 CLR None
2018-06-18 19:54 82 69 86 64 200° 8 - 29.90 29.90 10 CLR 6-hr Min Temp (8pm): 82.0°F
6-hr Max Temp (8pm): 91.9°F
2018-06-18 18:54 87 68 91 53 230° 9 - 29.92 29.92 10 CLR None
2018-06-18 17:54 89 68 94 50 220° 12 - 29.94 29.94 10 CLR None
2018-06-18 16:54 90 67 94 46 240° 12 - 29.95 29.96 10 CLR None

Support USWX by starting your Amazon purchase here.